createdAt,value
2022-11-05T00:01:55.194Z,7.81
2022-11-05T00:04:23.565Z,7.75
2022-11-05T00:06:56.968Z,7.65
2022-11-05T00:09:23.708Z,7.63
2022-11-05T00:11:50.498Z,7.68
2022-11-05T00:14:17.007Z,7.67
2022-11-05T00:16:43.431Z,7.61
2022-11-05T00:19:10.187Z,7.56
2022-11-05T00:21:38.613Z,7.47
2022-11-05T00:24:07.380Z,7.45
2022-11-05T00:26:33.838Z,7.49
2022-11-05T00:29:00.292Z,7.43
2022-11-05T00:31:26.780Z,7.47
2022-11-05T00:33:53.209Z,7.38
2022-11-05T00:36:19.644Z,7.38
2022-11-05T00:38:46.080Z,7.34
2022-11-05T00:41:13.913Z,7.30
2022-11-05T00:43:40.352Z,7.28
2022-11-05T00:46:06.818Z,7.23
2022-11-05T00:48:33.325Z,7.21
2022-11-05T00:50:59.827Z,7.20
2022-11-05T00:53:26.291Z,7.13
2022-11-05T00:55:52.747Z,7.11
2022-11-05T00:58:22.180Z,7.09
2022-11-05T01:00:50.607Z,7.07
2022-11-05T01:03:19.260Z,7.01
2022-11-05T01:05:47.648Z,7.07
2022-11-05T01:08:15.993Z,7.01
2022-11-05T01:10:43.358Z,6.95
2022-11-05T01:13:13.184Z,6.97
2022-11-05T01:15:42.080Z,6.94
2022-11-05T01:18:08.661Z,6.91
2022-11-05T01:20:35.096Z,6.90
2022-11-05T01:23:01.583Z,6.87
2022-11-05T01:25:28.062Z,6.87
2022-11-05T01:27:54.565Z,6.83
2022-11-05T01:30:21.363Z,6.77
2022-11-05T01:32:49.149Z,6.82
2022-11-05T01:35:17.517Z,6.81
2022-11-05T01:37:44.897Z,6.77
2022-11-05T01:40:14.073Z,6.74
2022-11-05T01:42:40.411Z,6.85
2022-11-05T01:45:16.589Z,6.79
2022-11-05T01:47:52.941Z,6.83
2022-11-05T01:50:34.310Z,6.78
2022-11-05T01:53:04.949Z,6.73
2022-11-05T01:55:35.941Z,6.76
2022-11-05T01:58:05.317Z,6.81
2022-11-05T02:00:31.761Z,6.75
2022-11-05T02:03:00.062Z,6.71
2022-11-05T02:05:27.055Z,6.71
2022-11-05T02:07:54.973Z,6.71
2022-11-05T02:10:22.093Z,6.77
2022-11-05T02:12:48.529Z,6.77
2022-11-05T02:15:17.424Z,6.78
2022-11-05T02:17:54.802Z,6.82
2022-11-05T02:20:35.570Z,6.86
2022-11-05T02:23:51.412Z,6.92
2022-11-05T02:27:05.937Z,6.95
2022-11-05T02:30:02.026Z,7.00
2022-11-05T02:32:59.717Z,7.09
2022-11-05T02:35:41.569Z,7.06
2022-11-05T02:38:11.243Z,7.13
2022-11-05T02:40:49.746Z,7.08
2022-11-05T02:43:24.738Z,7.15
2022-11-05T02:46:00.850Z,7.12
2022-11-05T02:48:35.335Z,7.25
2022-11-05T02:51:07.688Z,7.25
2022-11-05T02:53:41.391Z,7.20
2022-11-05T02:56:14.176Z,7.22
2022-11-05T02:58:41.558Z,7.22
2022-11-05T03:01:09.882Z,7.16
2022-11-05T03:03:40.572Z,7.12
2022-11-05T03:06:25.887Z,7.06
2022-11-05T03:09:09.242Z,7.10
2022-11-05T03:11:44.972Z,7.05
2022-11-05T03:14:21.487Z,6.98
2022-11-05T03:16:53.716Z,6.91
2022-11-05T03:19:33.524Z,6.91
2022-11-05T03:22:06.327Z,6.89
2022-11-05T03:24:35.435Z,6.92
2022-11-05T03:27:06.464Z,6.79
2022-11-05T03:29:37.043Z,6.75
2022-11-05T03:32:05.514Z,6.70
2022-11-05T03:34:42.528Z,6.67
2022-11-05T03:37:10.665Z,6.60
2022-11-05T03:39:41.456Z,6.57
2022-11-05T03:42:13.108Z,6.54
2022-11-05T03:44:45.063Z,6.62
2022-11-05T03:47:15.674Z,6.58
2022-11-05T03:49:53.638Z,6.60
2022-11-05T03:52:24.366Z,6.53
2022-11-05T03:54:50.865Z,6.61
2022-11-05T03:57:21.334Z,6.46
2022-11-05T03:59:49.858Z,6.50
2022-11-05T04:02:19.106Z,6.53
2022-11-05T04:04:47.123Z,6.44
2022-11-05T04:07:13.582Z,6.43
2022-11-05T04:09:40.009Z,6.37
2022-11-05T04:12:06.623Z,6.39
2022-11-05T04:14:33.651Z,6.34
2022-11-05T04:17:00.161Z,6.28
2022-11-05T04:19:26.660Z,6.32
2022-11-05T04:21:54.551Z,6.20
2022-11-05T04:24:21.035Z,6.20
2022-11-05T04:26:47.526Z,6.13
2022-11-05T04:29:14.039Z,6.22
2022-11-05T04:31:40.683Z,6.25
2022-11-05T04:34:07.158Z,6.17
2022-11-05T04:36:33.618Z,6.25
2022-11-05T04:39:01.506Z,6.27
2022-11-05T04:41:27.980Z,6.25
2022-11-05T04:43:54.496Z,6.32
2022-11-05T04:46:20.974Z,6.36
2022-11-05T04:48:47.431Z,6.41
2022-11-05T04:51:13.995Z,6.35
2022-11-05T04:53:40.445Z,6.41
2022-11-05T04:56:10.633Z,6.33
2022-11-05T04:58:41.059Z,6.27
2022-11-05T05:01:11.871Z,6.26
2022-11-05T05:03:38.383Z,6.30
2022-11-05T05:06:05.012Z,6.28
2022-11-05T05:08:31.472Z,6.26
2022-11-05T05:11:01.360Z,6.25
2022-11-05T05:13:29.187Z,6.27
2022-11-05T05:15:55.641Z,6.27
2022-11-05T05:18:22.209Z,6.21
2022-11-05T05:20:48.695Z,6.20
2022-11-05T05:23:15.155Z,6.18
2022-11-05T05:25:41.683Z,6.13
2022-11-05T05:28:08.212Z,6.12
2022-11-05T05:30:36.179Z,6.10
2022-11-05T05:33:03.036Z,6.07
2022-11-05T05:35:29.564Z,6.04
2022-11-05T05:37:56.481Z,5.97
2022-11-05T05:40:24.040Z,5.88
2022-11-05T05:42:53.608Z,5.83
2022-11-05T05:45:20.094Z,5.88
2022-11-05T05:47:47.913Z,5.83
2022-11-05T05:50:14.398Z,5.88
2022-11-05T05:52:40.820Z,5.89
2022-11-05T05:55:07.749Z,5.86
2022-11-05T05:57:34.233Z,5.90
2022-11-05T06:00:00.693Z,5.86
2022-11-05T06:02:27.265Z,5.91
2022-11-05T06:04:55.158Z,5.96
2022-11-05T06:07:21.577Z,5.92
2022-11-05T06:09:48.120Z,5.96
2022-11-05T06:12:14.666Z,6.00
2022-11-05T06:14:41.161Z,5.95
2022-11-05T06:17:07.977Z,5.98
2022-11-05T06:19:34.498Z,6.00
2022-11-05T06:22:02.312Z,5.99
2022-11-05T06:24:28.921Z,5.99
2022-11-05T06:26:55.457Z,6.01
2022-11-05T06:29:21.946Z,6.06
2022-11-05T06:31:48.402Z,6.02
2022-11-05T06:34:14.843Z,6.06
2022-11-05T06:36:41.272Z,6.08
2022-11-05T06:39:11.549Z,6.11
2022-11-05T06:42:04.103Z,6.11
2022-11-05T06:44:24.671Z,6.13
2022-11-05T06:46:51.121Z,6.15
2022-11-05T06:49:17.538Z,6.18
2022-11-05T06:51:43.992Z,6.20
2022-11-05T06:54:12.388Z,6.25
2022-11-05T06:56:38.931Z,6.32
2022-11-05T06:59:05.460Z,6.34
2022-11-05T07:01:32.342Z,6.34
2022-11-05T07:03:58.956Z,6.40
2022-11-05T07:06:26.485Z,6.40
2022-11-05T07:08:53.530Z,6.45
2022-11-05T07:11:21.404Z,6.46
2022-11-05T07:13:47.944Z,6.44
2022-11-05T07:16:14.389Z,6.52
2022-11-05T07:18:40.889Z,6.57
2022-11-05T07:21:07.333Z,6.58
2022-11-05T07:23:33.853Z,6.65
2022-11-05T07:26:00.313Z,6.68
2022-11-05T07:28:28.201Z,6.75
2022-11-05T07:30:54.671Z,6.79
2022-11-05T07:33:21.131Z,6.82
2022-11-05T07:35:47.654Z,7.02
2022-11-05T07:38:14.079Z,7.10
2022-11-05T07:40:40.738Z,7.13
2022-11-05T07:43:07.336Z,7.35
2022-11-05T07:45:35.413Z,7.66
2022-11-05T07:48:03.902Z,8.50
2022-11-05T07:50:32.900Z,9.30
2022-11-05T07:52:59.960Z,9.74
2022-11-05T07:55:26.510Z,10.31
2022-11-05T07:57:53.028Z,10.63
2022-11-05T08:00:21.117Z,11.25
2022-11-05T08:03:06.650Z,11.32
2022-11-05T08:05:36.347Z,12.06
2022-11-05T08:08:03.838Z,12.43
2022-11-05T08:10:30.338Z,11.84
2022-11-05T08:12:56.877Z,12.19
2022-11-05T08:15:24.158Z,12.48
2022-11-05T08:17:57.117Z,12.93
2022-11-05T08:20:25.090Z,13.40
2022-11-05T08:22:51.727Z,14.02
2022-11-05T08:25:18.178Z,14.63
2022-11-05T08:27:44.729Z,14.76
2022-11-05T08:30:11.806Z,15.24
2022-11-05T08:32:38.494Z,14.91
2022-11-05T08:35:06.560Z,15.62
2022-11-05T08:37:34.359Z,15.18
2022-11-05T08:40:00.877Z,15.78
2022-11-05T08:42:27.389Z,15.79
2022-11-05T08:44:53.881Z,15.37
2022-11-05T08:47:20.622Z,15.81
2022-11-05T08:49:47.093Z,16.28
2022-11-05T08:52:13.589Z,15.79
2022-11-05T08:54:42.465Z,16.55
2022-11-05T08:57:08.801Z,16.76
2022-11-05T08:59:35.246Z,16.31
2022-11-05T09:02:01.780Z,16.28
2022-11-05T09:04:28.499Z,16.02
2022-11-05T09:06:55.073Z,16.25
2022-11-05T09:09:21.562Z,16.44
2022-11-05T09:12:11.220Z,16.68
2022-11-05T09:14:35.790Z,16.86
2022-11-05T09:17:02.336Z,16.09
2022-11-05T09:19:28.819Z,16.69
2022-11-05T09:21:55.270Z,17.36
2022-11-05T09:24:21.694Z,16.72
2022-11-05T09:26:49.549Z,16.32
2022-11-05T09:29:15.994Z,17.01
2022-11-05T09:31:42.599Z,16.74
2022-11-05T09:34:09.104Z,16.61
2022-11-05T09:36:35.509Z,16.54
2022-11-05T09:39:01.945Z,17.01
2022-11-05T09:41:31.674Z,17.58
2022-11-05T09:44:05.210Z,17.69
2022-11-05T09:46:41.146Z,16.75
2022-11-05T09:49:23.730Z,16.91
2022-11-05T09:51:51.734Z,16.63
2022-11-05T09:54:21.283Z,17.88
2022-11-05T09:56:47.773Z,16.82
2022-11-05T09:59:18.576Z,17.32
2022-11-05T10:01:45.840Z,18.12
2022-11-05T10:04:16.552Z,18.41
2022-11-05T10:06:47.543Z,18.56
2022-11-05T10:09:20.931Z,18.64
2022-11-05T10:11:51.506Z,18.25
2022-11-05T10:14:23.958Z,17.57
2022-11-05T10:16:55.491Z,18.84
2022-11-05T10:19:25.478Z,18.79
2022-11-05T10:22:10.949Z,18.84
2022-11-05T10:24:40.515Z,18.99
2022-11-05T10:27:07.276Z,18.55
2022-11-05T10:29:35.868Z,18.79
2022-11-05T10:32:05.509Z,18.84
2022-11-05T10:34:34.880Z,18.55
2022-11-05T10:37:01.435Z,17.81
2022-11-05T10:39:31.049Z,16.67
2022-11-05T10:42:23.659Z,16.02
2022-11-05T10:45:00.039Z,15.85
2022-11-05T10:47:43.530Z,15.54
2022-11-05T10:50:12.609Z,16.02
2022-11-05T10:52:44.063Z,15.84
2022-11-05T10:55:16.846Z,15.95
2022-11-05T10:57:43.363Z,15.11
2022-11-05T11:00:26.663Z,15.13
2022-11-05T11:02:55.125Z,15.80
2022-11-05T11:05:24.557Z,15.06
2022-11-05T11:08:01.067Z,14.94
2022-11-05T11:10:30.318Z,14.83
2022-11-05T11:12:57.413Z,14.34
2022-11-05T11:15:28.006Z,14.37
2022-11-05T11:17:55.705Z,13.52
2022-11-05T11:20:28.590Z,13.74
2022-11-05T11:23:11.340Z,13.29
2022-11-05T11:25:44.957Z,13.15
2022-11-05T11:28:19.041Z,12.93
2022-11-05T11:30:53.876Z,13.02
2022-11-05T11:33:23.904Z,12.70
2022-11-05T11:35:50.540Z,12.32
2022-11-05T11:38:18.825Z,12.42
2022-11-05T11:40:48.501Z,12.43
2022-11-05T11:43:29.001Z,12.29
2022-11-05T11:46:03.810Z,12.53
2022-11-05T11:48:36.142Z,12.66
2022-11-05T11:51:17.752Z,12.41
2022-11-05T11:53:44.309Z,12.50
2022-11-05T11:56:16.878Z,12.37
2022-11-05T11:58:46.767Z,12.39
2022-11-05T12:01:48.804Z,12.33
2022-11-05T12:04:29.189Z,12.46
2022-11-05T12:07:10.277Z,12.49
2022-11-05T12:09:54.854Z,12.33
2022-11-05T12:12:28.593Z,12.34
2022-11-05T12:15:01.113Z,12.34
2022-11-05T12:17:46.697Z,12.27
2022-11-05T12:20:38.369Z,12.32
2022-11-05T12:23:34.617Z,12.28
2022-11-05T12:26:11.585Z,12.10
2022-11-05T12:29:17.351Z,11.96
2022-11-05T12:31:47.981Z,12.02
2022-11-05T12:34:30.585Z,11.77
2022-11-05T12:37:11.799Z,11.77
2022-11-05T12:39:59.258Z,11.86
2022-11-05T12:42:41.066Z,11.80
2022-11-05T12:45:20.931Z,11.90
2022-11-05T12:48:04.208Z,11.98
2022-11-05T12:50:38.327Z,11.91
2022-11-05T12:53:33.030Z,12.03
2022-11-05T12:56:03.831Z,12.17
2022-11-05T12:58:34.566Z,12.04
2022-11-05T13:01:11.499Z,11.65
2022-11-05T13:03:43.613Z,11.89
2022-11-05T13:06:13.370Z,11.84
2022-11-05T13:08:44.931Z,11.90
2022-11-05T13:11:18.887Z,11.71
2022-11-05T13:13:51.566Z,11.70
2022-11-05T13:16:25.657Z,11.70
2022-11-05T13:18:54.902Z,11.68
2022-11-05T13:21:25.031Z,11.59
2022-11-05T13:23:59.606Z,11.59
2022-11-05T13:26:31.264Z,11.51
2022-11-05T13:29:05.394Z,11.11
2022-11-05T13:31:36.754Z,11.34
2022-11-05T13:34:09.078Z,11.31
2022-11-05T13:36:45.863Z,11.28
2022-11-05T13:39:19.314Z,11.42
2022-11-05T13:42:03.286Z,11.28
2022-11-05T13:44:48.071Z,11.06
2022-11-05T13:47:45.971Z,11.27
2022-11-05T13:50:26.923Z,11.17
2022-11-05T13:53:11.065Z,11.23
2022-11-05T13:56:01.529Z,11.19
2022-11-05T13:58:43.163Z,11.05
2022-11-05T14:01:18.248Z,11.05
2022-11-05T14:03:47.675Z,11.04
2022-11-05T14:06:14.567Z,10.82
2022-11-05T14:08:45.531Z,10.84
2022-11-05T14:11:22.015Z,10.79
2022-11-05T14:13:53.906Z,10.85
2022-11-05T14:16:21.930Z,10.62
2022-11-05T14:18:53.848Z,10.63
2022-11-05T14:21:46.265Z,10.58
2022-11-05T14:24:28.438Z,10.70
2022-11-05T14:27:32.493Z,10.69
2022-11-05T14:30:00.579Z,10.62
2022-11-05T14:32:43.139Z,10.46
2022-11-05T14:35:34.482Z,10.56
2022-11-05T14:38:01.648Z,10.45
2022-11-05T14:40:37.023Z,10.42
2022-11-05T14:43:07.184Z,10.36
2022-11-05T14:45:40.186Z,10.23
2022-11-05T14:48:24.339Z,10.31
2022-11-05T14:50:51.357Z,10.36
2022-11-05T14:53:27.080Z,10.26
2022-11-05T14:56:01.174Z,10.19
2022-11-05T14:58:33.512Z,10.21
2022-11-05T15:01:03.610Z,10.23
2022-11-05T15:03:59.181Z,10.24
2022-11-05T15:06:31.386Z,10.25
2022-11-05T15:09:13.216Z,10.27
2022-11-05T15:11:43.349Z,10.18
2022-11-05T15:14:20.052Z,10.26
2022-11-05T15:16:54.388Z,10.23
2022-11-05T15:19:26.795Z,10.29
2022-11-05T15:21:56.456Z,10.34
2022-11-05T15:24:23.835Z,10.23
2022-11-05T15:26:58.068Z,10.31
2022-11-05T15:29:29.196Z,10.30
2022-11-05T15:31:58.272Z,10.21
2022-11-05T15:34:26.074Z,10.29
2022-11-05T15:36:54.884Z,10.23
2022-11-05T15:39:29.988Z,10.26
2022-11-05T15:41:57.737Z,10.16
2022-11-05T15:44:26.930Z,10.15
2022-11-05T15:47:13.345Z,10.24
2022-11-05T15:49:41.481Z,10.17
2022-11-05T15:52:11.593Z,10.20
2022-11-05T15:54:38.944Z,10.06
2022-11-05T15:57:05.989Z,10.03
2022-11-05T15:59:32.688Z,10.01
2022-11-05T16:02:18.976Z,10.03
2022-11-05T16:04:48.216Z,9.93
2022-11-05T16:07:15.455Z,9.93
2022-11-05T16:09:42.665Z,9.88
2022-11-05T16:12:13.081Z,9.83
2022-11-05T16:14:39.973Z,9.82
2022-11-05T16:17:24.233Z,9.79
2022-11-05T16:19:52.072Z,9.79
2022-11-05T16:22:18.653Z,9.75
2022-11-05T16:24:45.729Z,9.73
2022-11-05T16:27:18.124Z,9.74
2022-11-05T16:33:04.522Z,9.72
2022-11-05T16:35:32.789Z,9.66
2022-11-05T16:38:00.694Z,9.68
2022-11-05T16:40:27.070Z,9.59
2022-11-05T16:42:53.974Z,9.53
2022-11-05T16:45:21.562Z,9.57
2022-11-05T16:47:47.941Z,9.57
2022-11-05T16:50:19.535Z,9.53
2022-11-05T16:52:50.402Z,9.53
2022-11-05T16:55:17.547Z,9.45
2022-11-05T16:57:44.839Z,9.47
2022-11-05T17:00:13.231Z,9.49
2022-11-05T17:02:39.733Z,9.44
2022-11-05T17:05:06.811Z,9.44
2022-11-05T17:07:37.203Z,9.39
2022-11-05T17:10:16.203Z,9.38
2022-11-05T17:12:43.398Z,9.38
2022-11-05T17:15:27.711Z,9.36
2022-11-05T17:17:57.697Z,9.38
2022-11-05T17:20:29.080Z,9.31
2022-11-05T17:22:56.638Z,9.37
2022-11-05T17:25:28.454Z,9.33
2022-11-05T17:27:54.879Z,9.27
2022-11-05T17:30:21.419Z,9.23
2022-11-05T17:32:48.023Z,9.21
2022-11-05T17:35:14.366Z,9.17
2022-11-05T17:37:41.228Z,9.09
2022-11-05T17:40:08.573Z,9.13
2022-11-05T17:42:36.229Z,9.11
2022-11-05T17:45:02.594Z,9.05
2022-11-05T17:47:29.706Z,9.10
2022-11-05T17:49:56.044Z,9.08
2022-11-05T17:52:22.392Z,9.04
2022-11-05T17:54:48.702Z,9.04
2022-11-05T17:59:41.045Z,9.01
2022-11-05T18:02:09.283Z,8.97
2022-11-05T18:04:35.680Z,9.01
2022-11-05T18:07:02.033Z,8.99
2022-11-05T18:09:28.741Z,8.96
2022-11-05T18:12:32.318Z,8.98
2022-11-05T18:14:58.673Z,8.93
2022-11-05T18:18:37.370Z,8.94
2022-11-05T18:21:03.825Z,8.91
2022-11-05T18:23:30.131Z,8.89
2022-11-05T18:25:56.454Z,8.84
2022-11-05T18:28:22.752Z,8.79
2022-11-05T18:30:49.035Z,8.83
2022-11-05T18:33:15.599Z,8.80
2022-11-05T18:35:44.410Z,8.73
2022-11-05T18:38:11.072Z,8.73
2022-11-05T18:40:37.394Z,8.71
2022-11-05T18:43:03.735Z,8.70
2022-11-05T18:45:30.163Z,8.64
2022-11-05T18:47:56.526Z,8.62
2022-11-05T18:50:22.844Z,8.65
2022-11-05T18:52:50.491Z,8.72
2022-11-05T18:55:16.847Z,8.72
2022-11-05T18:57:43.147Z,8.65
2022-11-05T19:00:10.024Z,8.65
2022-11-05T19:02:36.418Z,8.63
2022-11-05T19:07:49.107Z,8.72
2022-11-05T19:10:17.091Z,8.74
2022-11-05T19:12:43.366Z,8.67
2022-11-05T19:15:09.924Z,8.69
2022-11-05T19:17:36.423Z,8.70
2022-11-05T19:20:03.516Z,8.71
2022-11-05T19:22:29.838Z,8.67
2022-11-05T19:24:56.280Z,8.73
2022-11-05T19:27:23.919Z,8.71
2022-11-05T19:29:50.245Z,8.73
2022-11-05T19:32:16.710Z,8.69
2022-11-05T19:34:43.047Z,8.69
2022-11-05T19:37:11.152Z,8.67
2022-11-05T19:39:37.592Z,8.70
2022-11-05T19:42:06.548Z,8.69
2022-11-05T19:44:34.188Z,8.63
2022-11-05T19:47:00.525Z,8.72
2022-11-05T19:49:28.608Z,8.72
2022-11-05T19:51:55.157Z,8.75
2022-11-05T19:54:21.505Z,8.69
2022-11-05T19:56:49.607Z,8.69
2022-11-05T19:59:15.922Z,8.69
2022-11-05T20:01:43.815Z,8.72
2022-11-05T20:04:10.268Z,8.76
2022-11-05T20:06:37.188Z,8.75
2022-11-05T20:09:21.251Z,8.66
2022-11-05T20:11:48.703Z,8.69
2022-11-05T20:14:15.027Z,8.66
2022-11-05T20:16:45.629Z,8.64
2022-11-05T20:19:13.423Z,8.69
2022-11-05T20:21:39.800Z,8.75
2022-11-05T20:24:06.546Z,8.69
2022-11-05T20:26:33.275Z,8.68
2022-11-05T20:29:00.044Z,8.66
2022-11-05T20:31:26.624Z,8.69
2022-11-05T20:33:54.356Z,8.65
2022-11-05T20:36:24.138Z,8.65
2022-11-05T20:38:51.396Z,8.67
2022-11-05T20:41:18.409Z,8.65
2022-11-05T20:43:44.984Z,8.62
2022-11-05T20:46:12.949Z,8.65
2022-11-05T20:48:39.276Z,8.63
2022-11-05T20:51:08.617Z,8.62
2022-11-05T20:53:35.004Z,8.60
2022-11-05T20:56:05.148Z,8.61
2022-11-05T20:58:36.785Z,8.61
2022-11-05T21:01:03.613Z,8.59
2022-11-05T21:03:30.129Z,8.59
2022-11-05T21:05:56.765Z,8.52
2022-11-05T21:08:24.465Z,8.50
2022-11-05T21:10:53.223Z,8.50
2022-11-05T21:13:21.578Z,8.46
2022-11-05T21:15:52.201Z,8.49
2022-11-05T21:18:19.273Z,8.58
2022-11-05T21:20:47.379Z,8.54
2022-11-05T21:23:14.061Z,8.58
2022-11-05T21:25:45.120Z,8.55
2022-11-05T21:28:12.545Z,8.57
2022-11-05T21:30:40.208Z,8.55
2022-11-05T21:33:06.580Z,8.51
2022-11-05T21:35:33.044Z,8.49
2022-11-05T21:37:59.846Z,8.54
2022-11-05T21:40:26.280Z,8.42
2022-11-05T21:42:53.955Z,8.38
2022-11-05T21:45:20.377Z,8.36
2022-11-05T21:47:47.962Z,8.32
2022-11-05T21:50:21.665Z,8.27
2022-11-05T21:52:50.233Z,8.29
2022-11-05T21:55:16.607Z,8.15
2022-11-05T21:57:42.938Z,8.01
2022-11-05T22:00:11.230Z,8.04
2022-11-05T22:02:37.923Z,7.98
2022-11-05T22:05:05.058Z,8.00
2022-11-05T22:07:37.319Z,8.08
2022-11-05T22:10:10.726Z,8.04
2022-11-05T22:12:39.603Z,8.04
2022-11-05T22:15:06.350Z,8.04
2022-11-05T22:17:36.672Z,8.01
2022-11-05T22:20:03.952Z,7.99
2022-11-05T22:22:32.163Z,7.92
2022-11-05T22:24:58.498Z,7.91
2022-11-05T22:27:24.816Z,7.86
2022-11-05T22:29:51.209Z,7.86
2022-11-05T22:32:17.593Z,7.74
2022-11-05T22:34:45.242Z,7.77
2022-11-05T22:37:12.519Z,7.76
2022-11-05T22:39:38.887Z,7.71
2022-11-05T22:42:08.478Z,7.74
2022-11-05T22:44:35.835Z,7.72
2022-11-05T22:47:02.323Z,7.69
2022-11-05T22:49:28.736Z,7.61
2022-11-05T22:51:56.543Z,7.55
2022-11-05T22:54:22.856Z,7.61
2022-11-05T22:56:49.164Z,7.53
2022-11-05T22:59:15.783Z,7.46
2022-11-05T23:01:42.931Z,7.50
2022-11-05T23:04:09.371Z,7.45
2022-11-05T23:06:35.869Z,7.47
2022-11-05T23:09:05.389Z,7.45
2022-11-05T23:11:33.523Z,7.46
2022-11-05T23:13:59.991Z,7.41
2022-11-05T23:16:26.336Z,7.38
2022-11-05T23:18:52.651Z,7.41
2022-11-05T23:21:22.813Z,7.35
2022-11-05T23:23:49.616Z,7.35
2022-11-05T23:26:17.262Z,7.36
2022-11-05T23:28:46.400Z,7.36
2022-11-05T23:31:12.713Z,7.35
2022-11-05T23:33:39.052Z,7.37
2022-11-05T23:36:11.798Z,7.40
2022-11-05T23:38:38.480Z,7.35
2022-11-05T23:41:05.338Z,7.36
2022-11-05T23:43:33.133Z,7.35
2022-11-05T23:45:59.412Z,7.39
2022-11-05T23:48:27.279Z,7.39
2022-11-05T23:50:56.947Z,7.44
2022-11-05T23:53:23.728Z,7.42
2022-11-05T23:55:50.136Z,7.45
2022-11-05T23:58:16.983Z,7.45
